sensor_id;sensor_type;location;lat;lon;timestamp;pressure;altitude;pressure_sealevel;temperature;humidity
44140;BME280;29803;51.048;4.686;2023-05-01T00:01:33;101668.63;;;12.62;100.00
44140;BME280;29803;51.048;4.686;2023-05-01T00:04:04;101668.81;;;12.60;100.00
44140;BME280;29803;51.048;4.686;2023-05-01T00:06:34;101668.09;;;12.58;100.00
44140;BME280;29803;51.048;4.686;2023-05-01T00:09:04;101661.88;;;12.58;100.00
44140;BME280;29803;51.048;4.686;2023-05-01T00:11:36;101666.59;;;12.56;100.00
44140;BME280;29803;51.048;4.686;2023-05-01T00:14:06;101654.81;;;12.57;100.00
44140;BME280;29803;51.048;4.686;2023-05-01T00:16:37;101652.97;;;12.57;100.00
44140;BME280;29803;51.048;4.686;2023-05-01T00:19:07;101658.34;;;12.57;100.00
44140;BME280;29803;51.048;4.686;2023-05-01T00:21:37;101647.75;;;12.56;100.00
44140;BME280;29803;51.048;4.686;2023-05-01T00:24:08;101648.72;;;12.55;100.00
44140;BME280;29803;51.048;4.686;2023-05-01T00:26:38;101646.53;;;12.50;100.00
44140;BME280;29803;51.048;4.686;2023-05-01T00:29:08;101635.78;;;12.50;100.00
44140;BME280;29803;51.048;4.686;2023-05-01T00:31:39;101638.59;;;12.49;100.00
44140;BME280;29803;51.048;4.686;2023-05-01T00:34:11;101634.03;;;12.41;100.00
44140;BME280;29803;51.048;4.686;2023-05-01T00:36:41;101630.97;;;12.36;100.00
44140;BME280;29803;51.048;4.686;2023-05-01T00:39:12;101639.53;;;12.31;100.00
44140;BME280;29803;51.048;4.686;2023-05-01T00:41:42;101624.69;;;12.27;100.00
44140;BME280;29803;51.048;4.686;2023-05-01T00:44:13;101623.31;;;12.23;100.00
44140;BME280;29803;51.048;4.686;2023-05-01T00:46:43;101616.25;;;12.22;100.00
44140;BME280;29803;51.048;4.686;2023-05-01T00:49:13;101616.41;;;12.21;100.00
44140;BME280;29803;51.048;4.686;2023-05-01T00:51:44;101606.63;;;12.19;100.00
44140;BME280;29803;51.048;4.686;2023-05-01T00:54:17;101613.03;;;12.18;100.00
44140;BME280;29803;51.048;4.686;2023-05-01T00:56:48;101598.06;;;12.16;100.00
44140;BME280;29803;51.048;4.686;2023-05-01T00:59:20;101598.19;;;12.14;100.00
44140;BME280;29803;51.048;4.686;2023-05-01T01:01:50;101603.91;;;12.11;100.00
44140;BME280;29803;51.048;4.686;2023-05-01T01:04:21;101583.41;;;12.10;100.00
44140;BME280;29803;51.048;4.686;2023-05-01T01:14:58;101577.41;;;11.99;100.00
44140;BME280;29803;51.048;4.686;2023-05-01T01:20:08;101568.97;;;11.93;100.00
44140;BME280;29803;51.048;4.686;2023-05-01T01:22:45;101577.22;;;11.92;100.00
44140;BME280;29803;51.048;4.686;2023-05-01T01:25:28;101570.28;;;11.89;100.00
44140;BME280;29803;51.048;4.686;2023-05-01T01:30:34;101561.38;;;11.89;100.00
44140;BME280;29803;51.048;4.686;2023-05-01T01:36:01;101544.75;;;11.85;100.00
44140;BME280;29803;51.048;4.686;2023-05-01T01:38:45;101555.63;;;11.84;100.00
44140;BME280;29803;51.048;4.686;2023-05-01T01:41:19;101552.09;;;11.83;100.00
44140;BME280;29803;51.048;4.686;2023-05-01T01:43:53;101545.06;;;11.82;100.00
44140;BME280;29803;51.048;4.686;2023-05-01T01:46:24;101544.47;;;11.79;100.00
44140;BME280;29803;51.048;4.686;2023-05-01T01:49:00;101542.44;;;11.73;100.00
44140;BME280;29803;51.048;4.686;2023-05-01T01:51:43;101550.78;;;11.70;100.00
44140;BME280;29803;51.048;4.686;2023-05-01T01:54:15;101548.28;;;11.68;100.00
44140;BME280;29803;51.048;4.686;2023-05-01T01:57:00;101540.38;;;11.66;100.00
44140;BME280;29803;51.048;4.686;2023-05-01T01:59:33;101543.72;;;11.68;100.00
44140;BME280;29803;51.048;4.686;2023-05-01T02:02:04;101540.03;;;11.70;100.00
44140;BME280;29803;51.048;4.686;2023-05-01T02:04:35;101537.69;;;11.66;100.00
44140;BME280;29803;51.048;4.686;2023-05-01T02:07:06;101531.69;;;11.73;100.00
44140;BME280;29803;51.048;4.686;2023-05-01T02:09:37;101539.91;;;11.71;100.00
44140;BME280;29803;51.048;4.686;2023-05-01T02:12:08;101542.91;;;11.68;100.00
44140;BME280;29803;51.048;4.686;2023-05-01T02:14:40;101536.84;;;11.66;100.00
44140;BME280;29803;51.048;4.686;2023-05-01T02:17:12;101539.84;;;11.63;100.00
44140;BME280;29803;51.048;4.686;2023-05-01T02:19:43;101528.53;;;11.59;100.00
44140;BME280;29803;51.048;4.686;2023-05-01T02:22:15;101525.19;;;11.57;100.00
44140;BME280;29803;51.048;4.686;2023-05-01T02:24:46;101526.47;;;11.53;100.00
44140;BME280;29803;51.048;4.686;2023-05-01T02:27:19;101517.03;;;11.49;100.00
44140;BME280;29803;51.048;4.686;2023-05-01T02:29:51;101520.91;;;11.47;100.00
44140;BME280;29803;51.048;4.686;2023-05-01T02:32:22;101506.09;;;11.43;100.00
44140;BME280;29803;51.048;4.686;2023-05-01T02:34:53;101508.94;;;11.41;100.00
44140;BME280;29803;51.048;4.686;2023-05-01T02:37:23;101512.75;;;11.38;100.00
44140;BME280;29803;51.048;4.686;2023-05-01T02:39:54;101499.50;;;11.37;100.00
44140;BME280;29803;51.048;4.686;2023-05-01T02:42:24;101504.88;;;11.37;100.00
44140;BME280;29803;51.048;4.686;2023-05-01T02:44:56;101506.56;;;11.38;100.00
44140;BME280;29803;51.048;4.686;2023-05-01T02:47:27;101500.88;;;11.41;100.00
44140;BME280;29803;51.048;4.686;2023-05-01T02:49:59;101501.19;;;11.38;100.00
44140;BME280;29803;51.048;4.686;2023-05-01T02:52:30;101494.78;;;11.39;100.00
44140;BME280;29803;51.048;4.686;2023-05-01T02:55:01;101490.59;;;11.36;100.00
44140;BME280;29803;51.048;4.686;2023-05-01T02:57:33;101484.69;;;11.33;100.00
44140;BME280;29803;51.048;4.686;2023-05-01T03:00:03;101490.22;;;11.31;100.00
44140;BME280;29803;51.048;4.686;2023-05-01T03:02:34;101487.69;;;11.30;100.00
44140;BME280;29803;51.048;4.686;2023-05-01T03:05:04;101480.78;;;11.27;100.00
44140;BME280;29803;51.048;4.686;2023-05-01T03:07:35;101479.94;;;11.27;100.00
44140;BME280;29803;51.048;4.686;2023-05-01T03:10:06;101484.69;;;11.33;100.00
44140;BME280;29803;51.048;4.686;2023-05-01T03:12:36;101481.63;;;11.28;100.00
44140;BME280;29803;51.048;4.686;2023-05-01T03:15:07;101474.88;;;11.24;100.00
44140;BME280;29803;51.048;4.686;2023-05-01T03:17:38;101478.00;;;11.19;100.00
44140;BME280;29803;51.048;4.686;2023-05-01T03:20:08;101474.81;;;11.15;100.00
44140;BME280;29803;51.048;4.686;2023-05-01T03:22:39;101472.25;;;11.14;100.00
44140;BME280;29803;51.048;4.686;2023-05-01T03:25:10;101468.06;;;11.11;100.00
44140;BME280;29803;51.048;4.686;2023-05-01T03:27:40;101466.06;;;11.13;100.00
44140;BME280;29803;51.048;4.686;2023-05-01T03:30:11;101469.56;;;11.14;100.00
44140;BME280;29803;51.048;4.686;2023-05-01T03:32:42;101460.22;;;11.18;100.00
44140;BME280;29803;51.048;4.686;2023-05-01T03:35:12;101465.75;;;11.17;100.00
44140;BME280;29803;51.048;4.686;2023-05-01T03:37:42;101465.91;;;11.15;100.00
44140;BME280;29803;51.048;4.686;2023-05-01T03:40:13;101460.00;;;11.11;100.00
44140;BME280;29803;51.048;4.686;2023-05-01T03:42:43;101455.63;;;11.10;100.00
44140;BME280;29803;51.048;4.686;2023-05-01T03:45:13;101459.78;;;11.05;100.00
44140;BME280;29803;51.048;4.686;2023-05-01T03:47:44;101457.84;;;10.97;100.00
44140;BME280;29803;51.048;4.686;2023-05-01T03:50:14;101455.41;;;10.86;100.00
44140;BME280;29803;51.048;4.686;2023-05-01T03:52:45;101458.34;;;10.75;100.00
44140;BME280;29803;51.048;4.686;2023-05-01T03:55:15;101460.91;;;10.67;100.00
44140;BME280;29803;51.048;4.686;2023-05-01T03:57:46;101452.47;;;10.61;100.00
44140;BME280;29803;51.048;4.686;2023-05-01T04:00:16;101460.81;;;10.58;100.00
44140;BME280;29803;51.048;4.686;2023-05-01T04:02:47;101460.81;;;10.58;100.00
44140;BME280;29803;51.048;4.686;2023-05-01T04:05:17;101465.50;;;10.56;100.00
44140;BME280;29803;51.048;4.686;2023-05-01T04:07:48;101457.47;;;10.56;100.00
44140;BME280;29803;51.048;4.686;2023-05-01T04:10:18;101457.47;;;10.56;100.00
44140;BME280;29803;51.048;4.686;2023-05-01T04:12:48;101456.47;;;10.57;100.00
44140;BME280;29803;51.048;4.686;2023-05-01T04:15:19;101460.16;;;10.56;100.00
44140;BME280;29803;51.048;4.686;2023-05-01T04:17:51;101458.47;;;10.55;100.00
44140;BME280;29803;51.048;4.686;2023-05-01T04:20:23;101456.91;;;10.53;100.00
44140;BME280;29803;51.048;4.686;2023-05-01T04:22:53;101459.34;;;10.46;100.00
44140;BME280;29803;51.048;4.686;2023-05-01T04:25:24;101456.28;;;10.41;100.00
44140;BME280;29803;51.048;4.686;2023-05-01T04:27:54;101454.06;;;10.36;100.00
44140;BME280;29803;51.048;4.686;2023-05-01T04:30:24;101459.56;;;10.35;100.00
44140;BME280;29803;51.048;4.686;2023-05-01T04:32:55;101457.84;;;10.34;100.00
44140;BME280;29803;51.048;4.686;2023-05-01T04:35:25;101449.53;;;10.37;100.00
44140;BME280;29803;51.048;4.686;2023-05-01T04:37:56;101448.13;;;10.33;100.00
44140;BME280;29803;51.048;4.686;2023-05-01T04:40:26;101452.66;;;10.32;100.00
44140;BME280;29803;51.048;4.686;2023-05-01T04:42:56;101448.44;;;10.30;100.00
44140;BME280;29803;51.048;4.686;2023-05-01T04:45:27;101449.41;;;10.29;100.00
44140;BME280;29803;51.048;4.686;2023-05-01T04:47:57;101448.44;;;10.30;100.00
44140;BME280;29803;51.048;4.686;2023-05-01T04:50:27;101451.13;;;10.30;100.00
44140;BME280;29803;51.048;4.686;2023-05-01T04:52:58;101451.66;;;10.33;100.00
44140;BME280;29803;51.048;4.686;2023-05-01T04:55:28;101453.22;;;10.36;100.00
44140;BME280;29803;51.048;4.686;2023-05-01T04:57:58;101459.13;;;10.40;100.00
44140;BME280;29803;51.048;4.686;2023-05-01T05:00:29;101459.66;;;10.43;100.00
44140;BME280;29803;51.048;4.686;2023-05-01T05:03:00;101458.69;;;10.44;100.00
44140;BME280;29803;51.048;4.686;2023-05-01T05:05:30;101460.03;;;10.48;100.00
44140;BME280;29803;51.048;4.686;2023-05-01T05:08:00;101459.06;;;10.49;100.00
44140;BME280;29803;51.048;4.686;2023-05-01T05:10:32;101456.78;;;10.54;100.00
44140;BME280;29803;51.048;4.686;2023-05-01T05:13:02;101461.53;;;10.60;100.00
44140;BME280;29803;51.048;4.686;2023-05-01T05:15:32;101460.06;;;10.66;100.00
44140;BME280;29803;51.048;4.686;2023-05-01T05:18:03;101465.66;;;10.73;100.00
44140;BME280;29803;51.048;4.686;2023-05-01T05:20:36;101463.38;;;10.78;100.00
44140;BME280;29803;51.048;4.686;2023-05-01T05:23:07;101464.75;;;10.82;100.00
44140;BME280;29803;51.048;4.686;2023-05-01T05:25:37;101467.28;;;10.83;100.00
44140;BME280;29803;51.048;4.686;2023-05-01T05:28:07;101462.75;;;10.84;100.00
44140;BME280;29803;51.048;4.686;2023-05-01T05:30:38;101469.50;;;10.88;100.00
44140;BME280;29803;51.048;4.686;2023-05-01T05:33:08;101470.75;;;10.94;100.00
44140;BME280;29803;51.048;4.686;2023-05-01T05:35:39;101468.31;;;11.00;100.00
44140;BME280;29803;51.048;4.686;2023-05-01T05:38:10;101464.28;;;11.04;100.00
44140;BME280;29803;51.048;4.686;2023-05-01T05:40:40;101467.22;;;11.11;100.00
44140;BME280;29803;51.048;4.686;2023-05-01T05:43:11;101469.66;;;11.22;100.00
44140;BME280;29803;51.048;4.686;2023-05-01T05:45:41;101459.66;;;11.32;100.00
44140;BME280;29803;51.048;4.686;2023-05-01T05:48:12;101454.19;;;11.42;100.00
44140;BME280;29803;51.048;4.686;2023-05-01T05:50:42;101454.78;;;11.54;100.00
44140;BME280;29803;51.048;4.686;2023-05-01T05:53:12;101463.56;;;11.64;100.00
44140;BME280;29803;51.048;4.686;2023-05-01T05:55:43;101462.63;;;11.73;100.00
44140;BME280;29803;51.048;4.686;2023-05-01T05:58:15;101464.41;;;11.82;100.00
44140;BME280;29803;51.048;4.686;2023-05-01T06:00:49;101459.09;;;11.99;100.00
44140;BME280;29803;51.048;4.686;2023-05-01T06:03:19;101460.34;;;12.12;100.00
44140;BME280;29803;51.048;4.686;2023-05-01T06:05:50;101457.38;;;12.24;100.00
44140;BME280;29803;51.048;4.686;2023-05-01T06:08:23;101449.50;;;12.30;100.00
44140;BME280;29803;51.048;4.686;2023-05-01T06:10:53;101457.59;;;12.38;100.00
44140;BME280;29803;51.048;4.686;2023-05-01T06:13:24;101454.09;;;12.46;100.00
44140;BME280;29803;51.048;4.686;2023-05-01T06:15:54;101454.94;;;12.55;100.00
44140;BME280;29803;51.048;4.686;2023-05-01T06:18:25;101461.69;;;12.59;100.00
44140;BME280;29803;51.048;4.686;2023-05-01T06:20:55;101452.13;;;12.73;100.00
44140;BME280;29803;51.048;4.686;2023-05-01T06:23:26;101454.00;;;12.88;100.00
44140;BME280;29803;51.048;4.686;2023-05-01T06:25:56;101456.69;;;13.05;100.00
44140;BME280;29803;51.048;4.686;2023-05-01T06:28:26;101459.41;;;13.21;100.00
44140;BME280;29803;51.048;4.686;2023-05-01T06:30:57;101453.50;;;13.50;100.00
44140;BME280;29803;51.048;4.686;2023-05-01T06:33:30;101451.63;;;13.75;100.00
44140;BME280;29803;51.048;4.686;2023-05-01T06:36:00;101451.84;;;14.13;100.00
44140;BME280;29803;51.048;4.686;2023-05-01T06:38:31;101452.13;;;14.88;100.00
44140;BME280;29803;51.048;4.686;2023-05-01T06:41:03;101450.22;;;14.97;100.00
44140;BME280;29803;51.048;4.686;2023-05-01T06:43:34;101450.88;;;14.99;100.00
44140;BME280;29803;51.048;4.686;2023-05-01T06:46:05;101450.72;;;15.15;100.00
44140;BME280;29803;51.048;4.686;2023-05-01T06:48:35;101450.66;;;15.23;100.00
44140;BME280;29803;51.048;4.686;2023-05-01T06:51:05;101449.88;;;15.15;100.00
44140;BME280;29803;51.048;4.686;2023-05-01T06:53:36;101448.88;;;15.16;100.00
44140;BME280;29803;51.048;4.686;2023-05-01T06:56:06;101450.25;;;15.49;100.00
44140;BME280;29803;51.048;4.686;2023-05-01T06:58:37;101448.53;;;15.57;100.00
44140;BME280;29803;51.048;4.686;2023-05-01T07:01:07;101446.50;;;15.88;100.00
44140;BME280;29803;51.048;4.686;2023-05-01T07:03:38;101453.31;;;16.65;100.00
44140;BME280;29803;51.048;4.686;2023-05-01T07:06:08;101452.47;;;17.50;100.00
44140;BME280;29803;51.048;4.686;2023-05-01T07:08:39;101461.66;;;18.59;100.00
44140;BME280;29803;51.048;4.686;2023-05-01T07:11:09;101457.06;;;18.60;100.00
44140;BME280;29803;51.048;4.686;2023-05-01T07:13:40;101461.78;;;19.52;100.00
44140;BME280;29803;51.048;4.686;2023-05-01T07:16:10;101467.22;;;18.93;100.00
44140;BME280;29803;51.048;4.686;2023-05-01T07:18:40;101461.34;;;18.96;100.00
44140;BME280;29803;51.048;4.686;2023-05-01T07:21:11;101456.97;;;18.33;100.00
44140;BME280;29803;51.048;4.686;2023-05-01T07:23:42;101459.09;;;18.51;100.00
44140;BME280;29803;51.048;4.686;2023-05-01T07:26:12;101460.56;;;19.08;100.00
44140;BME280;29803;51.048;4.686;2023-05-01T07:28:42;101455.00;;;20.08;100.00
44140;BME280;29803;51.048;4.686;2023-05-01T07:31:13;101459.28;;;19.51;100.00
44140;BME280;29803;51.048;4.686;2023-05-01T07:33:43;101450.66;;;18.74;100.00
44140;BME280;29803;51.048;4.686;2023-05-01T07:36:14;101461.25;;;18.62;100.00
44140;BME280;29803;51.048;4.686;2023-05-01T07:38:44;101468.00;;;18.73;100.00
44140;BME280;29803;51.048;4.686;2023-05-01T07:41:14;101460.41;;;18.62;100.00
44140;BME280;29803;51.048;4.686;2023-05-01T07:43:45;101459.38;;;18.63;100.00
44140;BME280;29803;51.048;4.686;2023-05-01T07:46:15;101449.44;;;18.35;100.00
44140;BME280;29803;51.048;4.686;2023-05-01T07:48:46;101454.78;;;18.16;100.00
44140;BME280;29803;51.048;4.686;2023-05-01T07:51:16;101455.03;;;17.58;100.00
44140;BME280;29803;51.048;4.686;2023-05-01T07:53:48;101454.44;;;17.63;100.00
44140;BME280;29803;51.048;4.686;2023-05-01T07:56:18;101455.97;;;17.44;100.00
44140;BME280;29803;51.048;4.686;2023-05-01T07:58:49;101464.50;;;17.41;100.00
44140;BME280;29803;51.048;4.686;2023-05-01T08:01:19;101460.06;;;17.33;100.00
44140;BME280;29803;51.048;4.686;2023-05-01T08:03:50;101458.72;;;17.50;100.00
44140;BME280;29803;51.048;4.686;2023-05-01T08:06:20;101459.53;;;17.44;100.00
44140;BME280;29803;51.048;4.686;2023-05-01T08:08:51;101460.69;;;17.35;100.00
44140;BME280;29803;51.048;4.686;2023-05-01T08:11:21;101461.09;;;17.60;100.00
44140;BME280;29803;51.048;4.686;2023-05-01T08:13:52;101458.53;;;17.73;100.00
44140;BME280;29803;51.048;4.686;2023-05-01T08:16:22;101459.63;;;17.57;100.00
44140;BME280;29803;51.048;4.686;2023-05-01T08:18:52;101462.88;;;17.46;100.00
44140;BME280;29803;51.048;4.686;2023-05-01T08:21:23;101462.53;;;17.56;100.00
44140;BME280;29803;51.048;4.686;2023-05-01T08:23:54;101460.81;;;17.76;100.00
44140;BME280;29803;51.048;4.686;2023-05-01T08:26:24;101462.34;;;17.57;100.00
44140;BME280;29803;51.048;4.686;2023-05-01T08:28:55;101456.19;;;17.42;100.00
44140;BME280;29803;51.048;4.686;2023-05-01T08:31:25;101463.34;;;17.28;100.00
44140;BME280;29803;51.048;4.686;2023-05-01T08:33:55;101457.22;;;17.20;100.00
44140;BME280;29803;51.048;4.686;2023-05-01T08:36:26;101460.16;;;16.97;100.00
44140;BME280;29803;51.048;4.686;2023-05-01T08:38:57;101460.84;;;16.84;100.00
44140;BME280;29803;51.048;4.686;2023-05-01T08:41:27;101469.09;;;16.76;100.00
44140;BME280;29803;51.048;4.686;2023-05-01T08:43:59;101469.75;;;16.78;100.00
44140;BME280;29803;51.048;4.686;2023-05-01T08:49:19;101474.19;;;16.35;100.00
44140;BME280;29803;51.048;4.686;2023-05-01T08:51:50;101479.16;;;16.16;100.00
44140;BME280;29803;51.048;4.686;2023-05-01T08:54:23;101473.19;;;16.06;100.00
44140;BME280;29803;51.048;4.686;2023-05-01T08:56:54;101482.16;;;15.92;100.00
44140;BME280;29803;51.048;4.686;2023-05-01T08:59:25;101483.16;;;15.76;100.00
44140;BME280;29803;51.048;4.686;2023-05-01T09:01:59;101494.31;;;15.58;100.00
44140;BME280;29803;51.048;4.686;2023-05-01T09:04:30;101491.22;;;15.61;100.00
44140;BME280;29803;51.048;4.686;2023-05-01T09:07:01;101494.00;;;15.53;100.00
44140;BME280;29803;51.048;4.686;2023-05-01T09:09:32;101492.59;;;15.42;100.00
44140;BME280;29803;51.048;4.686;2023-05-01T09:14:44;101489.50;;;15.45;100.00
44140;BME280;29803;51.048;4.686;2023-05-01T09:17:15;101489.50;;;15.45;100.00
44140;BME280;29803;51.048;4.686;2023-05-01T09:19:45;101489.63;;;15.52;100.00
44140;BME280;29803;51.048;4.686;2023-05-01T09:22:16;101493.63;;;15.56;100.00
44140;BME280;29803;51.048;4.686;2023-05-01T09:24:47;101492.91;;;15.62;100.00
44140;BME280;29803;51.048;4.686;2023-05-01T09:27:18;101490.84;;;15.87;100.00
44140;BME280;29803;51.048;4.686;2023-05-01T09:29:48;101483.72;;;15.86;100.00
44140;BME280;29803;51.048;4.686;2023-05-01T09:32:21;101493.28;;;15.97;100.00
44140;BME280;29803;51.048;4.686;2023-05-01T09:34:54;101491.28;;;16.05;100.00
44140;BME280;29803;51.048;4.686;2023-05-01T09:40:08;101488.97;;;16.32;100.00
44140;BME280;29803;51.048;4.686;2023-05-01T09:42:40;101490.22;;;16.51;100.00
44140;BME280;29803;51.048;4.686;2023-05-01T09:45:11;101490.75;;;16.61;100.00
44140;BME280;29803;51.048;4.686;2023-05-01T09:47:43;101488.81;;;16.55;100.00
44140;BME280;29803;51.048;4.686;2023-05-01T09:50:27;101490.09;;;16.89;100.00
44140;BME280;29803;51.048;4.686;2023-05-01T09:53:10;101488.41;;;16.88;100.00
44140;BME280;29803;51.048;4.686;2023-05-01T09:55:42;101493.94;;;17.01;100.00
44140;BME280;29803;51.048;4.686;2023-05-01T09:58:28;101491.84;;;17.18;100.00
44140;BME280;29803;51.048;4.686;2023-05-01T10:00:59;101492.94;;;17.23;100.00
44140;BME280;29803;51.048;4.686;2023-05-01T10:03:29;101496.13;;;17.55;100.00
44140;BME280;29803;51.048;4.686;2023-05-01T10:06:01;101493.19;;;17.56;100.00
44140;BME280;29803;51.048;4.686;2023-05-01T10:08:50;101494.56;;;17.67;100.00
44140;BME280;29803;51.048;4.686;2023-05-01T10:11:20;101491.09;;;17.73;100.00
44140;BME280;29803;51.048;4.686;2023-05-01T10:14:04;101503.03;;;17.79;100.00
44140;BME280;29803;51.048;4.686;2023-05-01T10:16:36;101497.31;;;18.02;100.00
44140;BME280;29803;51.048;4.686;2023-05-01T10:19:07;101501.78;;;18.16;100.00
44140;BME280;29803;51.048;4.686;2023-05-01T10:21:38;101513.78;;;18.28;100.00
44140;BME280;29803;51.048;4.686;2023-05-01T10:24:08;101503.97;;;18.34;100.00
44140;BME280;29803;51.048;4.686;2023-05-01T10:26:40;101507.09;;;18.31;100.00
44140;BME280;29803;51.048;4.686;2023-05-01T10:29:11;101513.25;;;18.11;100.00
44140;BME280;29803;51.048;4.686;2023-05-01T10:31:41;101506.81;;;17.84;100.00
44140;BME280;29803;51.048;4.686;2023-05-01T10:34:14;101516.19;;;17.82;100.00
44140;BME280;29803;51.048;4.686;2023-05-01T10:36:46;101519.06;;;17.52;100.00
44140;BME280;29803;51.048;4.686;2023-05-01T10:39:29;101522.75;;;17.23;100.00
44140;BME280;29803;51.048;4.686;2023-05-01T10:44:33;101524.91;;;16.92;100.00
44140;BME280;29803;51.048;4.686;2023-05-01T10:50:03;101524.78;;;16.64;100.00
44140;BME280;29803;51.048;4.686;2023-05-01T10:55:34;101520.84;;;16.51;100.00
44140;BME280;29803;51.048;4.686;2023-05-01T10:58:05;101529.75;;;16.30;100.00
44140;BME280;29803;51.048;4.686;2023-05-01T11:00:35;101529.31;;;16.12;100.00
44140;BME280;29803;51.048;4.686;2023-05-01T11:08:44;101532.66;;;15.62;100.00
44140;BME280;29803;51.048;4.686;2023-05-01T11:14:04;101533.16;;;15.42;100.00
44140;BME280;29803;51.048;4.686;2023-05-01T11:21:52;101539.16;;;15.52;100.00
44140;BME280;29803;51.048;4.686;2023-05-01T11:27:12;101547.69;;;15.41;100.00
44140;BME280;29803;51.048;4.686;2023-05-01T11:29:43;101543.13;;;15.42;100.00
44140;BME280;29803;51.048;4.686;2023-05-01T11:32:15;101545.75;;;15.50;100.00
44140;BME280;29803;51.048;4.686;2023-05-01T11:34:47;101542.78;;;15.60;100.00
44140;BME280;29803;51.048;4.686;2023-05-01T11:37:17;101533.97;;;15.66;100.00
44140;BME280;29803;51.048;4.686;2023-05-01T11:39:48;101542.25;;;15.87;100.00
44140;BME280;29803;51.048;4.686;2023-05-01T11:42:19;101536.09;;;16.08;100.00
44140;BME280;29803;51.048;4.686;2023-05-01T11:47:40;101531.22;;;16.63;100.00
44140;BME280;29803;51.048;4.686;2023-05-01T11:50:10;101537.50;;;16.99;100.00
44140;BME280;29803;51.048;4.686;2023-05-01T11:52:43;101537.94;;;17.18;100.00
44140;BME280;29803;51.048;4.686;2023-05-01T11:55:14;101534.13;;;17.33;100.00
44140;BME280;29803;51.048;4.686;2023-05-01T12:00:34;101534.34;;;17.81;100.00
44140;BME280;29803;51.048;4.686;2023-05-01T12:03:08;101527.66;;;18.12;100.00
44140;BME280;29803;51.048;4.686;2023-05-01T12:05:40;101527.81;;;18.38;100.00
44140;BME280;29803;51.048;4.686;2023-05-01T12:10:42;101528.16;;;18.63;100.00
44140;BME280;29803;51.048;4.686;2023-05-01T12:13:12;101525.81;;;19.08;100.00
44140;BME280;29803;51.048;4.686;2023-05-01T12:15:44;101523.81;;;19.63;100.00
44140;BME280;29803;51.048;4.686;2023-05-01T12:18:15;101526.72;;;19.88;100.00
44140;BME280;29803;51.048;4.686;2023-05-01T12:20:47;101511.78;;;20.24;100.00
44140;BME280;29803;51.048;4.686;2023-05-01T12:23:28;101508.47;;;20.67;100.00
44140;BME280;29803;51.048;4.686;2023-05-01T12:25:59;101514.41;;;20.57;100.00
44140;BME280;29803;51.048;4.686;2023-05-01T12:28:32;101510.44;;;20.53;100.00
44140;BME280;29803;51.048;4.686;2023-05-01T12:31:02;101508.94;;;20.64;100.00
44140;BME280;29803;51.048;4.686;2023-05-01T12:33:33;101507.31;;;20.50;100.00
44140;BME280;29803;51.048;4.686;2023-05-01T12:38:56;101513.50;;;19.92;100.00
44140;BME280;29803;51.048;4.686;2023-05-01T12:44:21;101513.47;;;19.12;100.00
44140;BME280;29803;51.048;4.686;2023-05-01T12:49:38;101505.22;;;18.73;100.00
44140;BME280;29803;51.048;4.686;2023-05-01T12:52:09;101508.22;;;18.50;100.00
44140;BME280;29803;51.048;4.686;2023-05-01T12:54:42;101498.69;;;18.19;100.00
44140;BME280;29803;51.048;4.686;2023-05-01T12:57:13;101494.31;;;17.90;100.00
44140;BME280;29803;51.048;4.686;2023-05-01T12:59:44;101506.38;;;18.16;100.00
44140;BME280;29803;51.048;4.686;2023-05-01T13:02:16;101500.22;;;18.35;100.00
44140;BME280;29803;51.048;4.686;2023-05-01T13:04:46;101501.34;;;18.54;100.00
44140;BME280;29803;51.048;4.686;2023-05-01T13:07:18;101502.25;;;18.68;100.00
44140;BME280;29803;51.048;4.686;2023-05-01T13:09:50;101503.03;;;18.61;100.00
44140;BME280;29803;51.048;4.686;2023-05-01T13:12:21;101513.34;;;18.31;100.00
44140;BME280;29803;51.048;4.686;2023-05-01T13:14:55;101514.16;;;17.91;100.00
44140;BME280;29803;51.048;4.686;2023-05-01T13:17:26;101526.78;;;17.27;100.00
44140;BME280;29803;51.048;4.686;2023-05-01T13:19:57;101527.00;;;16.60;100.00
44140;BME280;29803;51.048;4.686;2023-05-01T13:25:18;101519.00;;;15.93;100.00
44140;BME280;29803;51.048;4.686;2023-05-01T13:27:50;101533.16;;;15.80;100.00
44140;BME280;29803;51.048;4.686;2023-05-01T13:30:32;101532.13;;;15.66;100.00
44140;BME280;29803;51.048;4.686;2023-05-01T13:33:02;101532.66;;;15.62;100.00
44140;BME280;29803;51.048;4.686;2023-05-01T13:35:34;101534.66;;;15.60;100.00
44140;BME280;29803;51.048;4.686;2023-05-01T13:38:05;101537.66;;;15.88;100.00
44140;BME280;29803;51.048;4.686;2023-05-01T13:40:38;101523.59;;;16.07;100.00
44140;BME280;29803;51.048;4.686;2023-05-01T13:43:11;101525.38;;;16.29;100.00
44140;BME280;29803;51.048;4.686;2023-05-01T13:45:42;101531.22;;;16.63;100.00
44140;BME280;29803;51.048;4.686;2023-05-01T13:48:14;101523.81;;;16.86;100.00
44140;BME280;29803;51.048;4.686;2023-05-01T13:50:45;101520.16;;;17.15;100.00
44140;BME280;29803;51.048;4.686;2023-05-01T13:53:16;101523.94;;;17.64;100.00
44140;BME280;29803;51.048;4.686;2023-05-01T13:55:47;101519.91;;;18.02;100.00
44140;BME280;29803;51.048;4.686;2023-05-01T13:58:17;101521.47;;;18.25;100.00
44140;BME280;29803;51.048;4.686;2023-05-01T14:00:47;101518.31;;;18.21;100.00
44140;BME280;29803;51.048;4.686;2023-05-01T14:03:18;101527.94;;;18.24;100.00
44140;BME280;29803;51.048;4.686;2023-05-01T14:05:48;101525.50;;;18.35;100.00
44140;BME280;29803;51.048;4.686;2023-05-01T14:08:19;101524.53;;;18.50;100.00
44140;BME280;29803;51.048;4.686;2023-05-01T14:10:51;101532.66;;;18.43;100.00